createdAt,value
2024-01-24T00:00:55.032Z,602.00
2024-01-24T00:01:54.980Z,605.00
2024-01-24T00:02:55.072Z,613.00
2024-01-24T00:03:55.163Z,606.00
2024-01-24T00:04:55.165Z,607.00
2024-01-24T00:05:55.160Z,604.00
2024-01-24T00:06:55.241Z,608.00
2024-01-24T00:07:55.236Z,602.00
2024-01-24T00:08:55.297Z,615.00
2024-01-24T00:09:55.349Z,608.00
2024-01-24T00:10:55.384Z,605.00
2024-01-24T00:11:55.485Z,618.00
2024-01-24T00:12:55.498Z,618.00
2024-01-24T00:13:55.504Z,607.00
2024-01-24T00:14:55.549Z,607.00
2024-01-24T00:15:55.627Z,606.00
2024-01-24T00:16:55.645Z,605.00
2024-01-24T00:17:55.747Z,604.00
2024-01-24T00:18:55.776Z,608.00
2024-01-24T00:19:55.767Z,611.00
2024-01-24T00:20:55.810Z,608.00
2024-01-24T00:21:55.878Z,612.00
2024-01-24T00:22:55.903Z,609.00
2024-01-24T00:23:55.952Z,605.00
2024-01-24T00:24:56.076Z,609.00
2024-01-24T00:25:56.038Z,611.00
2024-01-24T00:26:56.063Z,611.00
2024-01-24T00:27:56.104Z,612.00
2024-01-24T00:28:56.143Z,605.00
2024-01-24T00:29:56.182Z,612.00
2024-01-24T00:30:56.249Z,606.00
2024-01-24T00:31:56.275Z,614.00
2024-01-24T00:32:56.400Z,600.00
2024-01-24T00:33:56.457Z,603.00
2024-01-24T00:34:56.401Z,606.00
2024-01-24T00:35:56.442Z,603.00
2024-01-24T00:36:56.503Z,602.00
2024-01-24T00:37:56.531Z,604.00
2024-01-24T00:38:56.601Z,608.00
2024-01-24T00:39:56.631Z,609.00
2024-01-24T00:40:56.691Z,616.00
2024-01-24T00:41:56.718Z,603.00
2024-01-24T00:42:56.757Z,605.00
2024-01-24T00:43:56.808Z,606.00
2024-01-24T00:44:56.855Z,602.00
2024-01-24T00:45:57.017Z,611.00
2024-01-24T00:46:56.984Z,610.00
2024-01-24T00:47:57.016Z,613.00
2024-01-24T00:49:00.342Z,605.00
2024-01-24T00:49:57.042Z,613.00
2024-01-24T00:50:57.019Z,616.00
2024-01-24T00:51:57.037Z,608.00
2024-01-24T00:52:57.020Z,617.00
2024-01-24T00:53:57.056Z,607.00
2024-01-24T00:54:57.040Z,606.00
2024-01-24T00:55:57.055Z,619.00
2024-01-24T00:56:57.022Z,606.00
2024-01-24T00:57:57.033Z,606.00
2024-01-24T00:58:57.037Z,615.00
2024-01-24T00:59:57.055Z,610.00
2024-01-24T01:00:57.168Z,605.00
2024-01-24T01:01:57.038Z,612.00
2024-01-24T01:02:57.064Z,606.00
2024-01-24T01:03:57.102Z,610.00
2024-01-24T01:04:57.111Z,606.00
2024-01-24T01:05:57.040Z,605.00
2024-01-24T01:06:57.049Z,602.00
2024-01-24T01:07:57.048Z,607.00
2024-01-24T01:08:57.034Z,605.00
2024-01-24T01:09:57.042Z,615.00
2024-01-24T01:10:57.053Z,607.00
2024-01-24T01:11:57.057Z,602.00
2024-01-24T01:12:57.157Z,615.00
2024-01-24T01:13:57.069Z,605.00
2024-01-24T01:14:57.050Z,613.00
2024-01-24T01:15:57.122Z,608.00
2024-01-24T01:16:57.053Z,607.00
2024-01-24T01:17:57.128Z,611.00
2024-01-24T01:18:57.113Z,605.00
2024-01-24T01:19:57.054Z,601.00
2024-01-24T01:20:57.046Z,602.00
2024-01-24T01:21:57.121Z,600.00
2024-01-24T01:22:57.059Z,604.00
2024-01-24T01:23:57.064Z,602.00
2024-01-24T01:24:59.498Z,604.00
2024-01-24T01:25:57.101Z,611.00
2024-01-24T01:26:57.076Z,602.00
2024-01-24T01:27:57.100Z,611.00
2024-01-24T01:28:57.056Z,606.00
2024-01-24T01:29:57.070Z,600.00
2024-01-24T01:30:57.146Z,604.00
2024-01-24T01:31:57.079Z,600.00
2024-01-24T01:32:57.216Z,608.00
2024-01-24T01:33:57.192Z,606.00
2024-01-24T01:34:57.070Z,610.00
2024-01-24T01:36:08.768Z,608.00
2024-01-24T01:36:58.177Z,608.00
2024-01-24T01:37:57.089Z,609.00
2024-01-24T01:38:57.093Z,610.00
2024-01-24T01:39:57.125Z,609.00
2024-01-24T01:40:57.075Z,605.00
2024-01-24T01:41:57.112Z,605.00
2024-01-24T01:42:57.095Z,612.00
2024-01-24T01:43:57.091Z,607.00
2024-01-24T01:44:57.094Z,609.00
2024-01-24T01:45:57.136Z,612.00
2024-01-24T01:46:57.104Z,612.00
2024-01-24T01:47:57.153Z,602.00
2024-01-24T01:48:57.214Z,613.00
2024-01-24T01:49:57.193Z,611.00
2024-01-24T01:50:57.103Z,602.00
2024-01-24T01:51:57.171Z,609.00
2024-01-24T01:52:57.145Z,612.00
2024-01-24T01:53:57.175Z,607.00
2024-01-24T01:54:57.230Z,604.00
2024-01-24T01:55:57.268Z,602.00
2024-01-24T01:56:57.291Z,614.00
2024-01-24T01:57:57.379Z,609.00
2024-01-24T01:58:57.381Z,610.00
2024-01-24T01:59:57.419Z,609.00
2024-01-24T02:00:57.496Z,613.00
2024-01-24T02:02:01.822Z,605.00
2024-01-24T02:02:57.519Z,605.00
2024-01-24T02:03:57.565Z,606.00
2024-01-24T02:04:57.485Z,606.00
2024-01-24T02:05:57.541Z,607.00
2024-01-24T02:06:57.526Z,604.00
2024-01-24T02:07:57.596Z,606.00
2024-01-24T02:08:57.501Z,603.00
2024-01-24T02:09:57.591Z,606.00
2024-01-24T02:10:57.515Z,602.00
2024-01-24T02:11:57.523Z,604.00
2024-01-24T02:12:57.533Z,605.00
2024-01-24T02:13:57.518Z,600.00
2024-01-24T02:14:57.516Z,609.00
2024-01-24T02:15:57.583Z,602.00
2024-01-24T02:16:57.546Z,602.00
2024-01-24T02:17:57.664Z,604.00
2024-01-24T02:18:57.671Z,610.00
2024-01-24T02:19:57.578Z,607.00
2024-01-24T02:20:57.523Z,613.00
2024-01-24T02:21:57.583Z,607.00
2024-01-24T02:22:57.570Z,601.00
2024-01-24T02:23:57.551Z,606.00
2024-01-24T02:24:57.567Z,605.00
2024-01-24T02:25:57.545Z,606.00
2024-01-24T02:26:57.532Z,601.00
2024-01-24T02:27:57.621Z,603.00
2024-01-24T02:28:57.537Z,605.00
2024-01-24T02:29:57.562Z,606.00
2024-01-24T02:30:57.603Z,605.00
2024-01-24T02:31:57.615Z,605.00
2024-01-24T02:32:57.681Z,603.00
2024-01-24T02:33:57.627Z,602.00
2024-01-24T02:34:57.542Z,602.00
2024-01-24T02:35:57.557Z,605.00
2024-01-24T02:36:57.609Z,604.00
2024-01-24T02:37:57.566Z,604.00
2024-01-24T02:38:58.922Z,605.00
2024-01-24T02:39:57.624Z,604.00
2024-01-24T02:40:57.588Z,604.00
2024-01-24T02:41:57.562Z,605.00
2024-01-24T02:42:57.593Z,609.00
2024-01-24T02:43:57.577Z,605.00
2024-01-24T02:44:57.577Z,607.00
2024-01-24T02:45:57.621Z,606.00
2024-01-24T02:46:57.556Z,603.00
2024-01-24T02:47:57.629Z,602.00
2024-01-24T02:48:58.683Z,602.00
2024-01-24T02:49:57.596Z,605.00
2024-01-24T02:50:57.593Z,604.00
2024-01-24T02:51:57.646Z,606.00
2024-01-24T02:52:57.598Z,604.00
2024-01-24T02:53:57.606Z,606.00
2024-01-24T02:54:57.630Z,609.00
2024-01-24T02:55:57.642Z,605.00
2024-01-24T02:56:57.741Z,606.00
2024-01-24T02:57:57.729Z,605.00
2024-01-24T02:58:57.704Z,602.00
2024-01-24T02:59:57.712Z,605.00
2024-01-24T03:00:57.901Z,605.00
2024-01-24T03:02:10.485Z,602.00
2024-01-24T03:02:57.756Z,602.00
2024-01-24T03:03:57.824Z,603.00
2024-01-24T03:04:57.773Z,605.00
2024-01-24T03:05:57.775Z,604.00
2024-01-24T03:06:57.944Z,606.00
2024-01-24T03:07:58.568Z,608.00
2024-01-24T03:08:57.871Z,608.00
2024-01-24T03:09:57.802Z,607.00
2024-01-24T03:10:57.746Z,608.00
2024-01-24T03:11:57.832Z,604.00
2024-01-24T03:12:57.771Z,603.00
2024-01-24T03:13:57.760Z,606.00
2024-01-24T03:14:57.746Z,606.00
2024-01-24T03:15:57.876Z,602.00
2024-01-24T03:16:57.752Z,604.00
2024-01-24T03:17:57.841Z,603.00
2024-01-24T03:18:57.898Z,604.00
2024-01-24T03:19:57.773Z,604.00
2024-01-24T03:20:57.787Z,602.00
2024-01-24T03:21:57.866Z,602.00
2024-01-24T03:22:57.768Z,602.00
2024-01-24T03:23:57.784Z,605.00
2024-01-24T03:24:57.882Z,606.00
2024-01-24T03:25:57.788Z,603.00
2024-01-24T03:26:57.789Z,605.00
2024-01-24T03:27:57.874Z,603.00
2024-01-24T03:28:57.789Z,604.00
2024-01-24T03:29:57.778Z,606.00
2024-01-24T03:30:57.816Z,604.00
2024-01-24T03:31:57.794Z,604.00
2024-01-24T03:32:57.807Z,605.00
2024-01-24T03:33:57.912Z,603.00
2024-01-24T03:34:57.855Z,604.00
2024-01-24T03:35:57.808Z,602.00
2024-01-24T03:36:57.799Z,602.00
2024-01-24T03:37:57.795Z,605.00
2024-01-24T03:38:57.785Z,600.00
2024-01-24T03:39:57.870Z,607.00
2024-01-24T03:40:57.788Z,604.00
2024-01-24T03:41:57.793Z,602.00
2024-01-24T03:42:57.807Z,604.00
2024-01-24T03:43:57.990Z,604.00
2024-01-24T03:44:57.789Z,603.00
2024-01-24T03:45:57.846Z,601.00
2024-01-24T03:46:57.802Z,604.00
2024-01-24T03:47:57.814Z,605.00
2024-01-24T03:48:57.894Z,606.00
2024-01-24T03:49:57.853Z,604.00
2024-01-24T03:50:57.780Z,603.00
2024-01-24T03:51:57.916Z,603.00
2024-01-24T03:52:57.792Z,606.00
2024-01-24T03:53:57.799Z,600.00
2024-01-24T03:54:57.890Z,602.00
2024-01-24T03:55:57.809Z,605.00
2024-01-24T03:56:57.813Z,604.00
2024-01-24T03:57:57.858Z,603.00
2024-01-24T03:58:57.795Z,606.00
2024-01-24T03:59:57.851Z,603.00
2024-01-24T04:00:57.877Z,602.00
2024-01-24T04:01:57.812Z,600.00
2024-01-24T04:02:57.809Z,603.00
2024-01-24T04:03:57.909Z,603.00
2024-01-24T04:04:57.840Z,601.00
2024-01-24T04:05:57.825Z,605.00
2024-01-24T04:06:57.848Z,603.00
2024-01-24T04:07:57.835Z,603.00
2024-01-24T04:08:57.819Z,604.00
2024-01-24T04:09:57.864Z,606.00
2024-01-24T04:10:57.809Z,604.00
2024-01-24T04:11:57.856Z,607.00
2024-01-24T04:12:57.924Z,603.00
2024-01-24T04:13:57.815Z,603.00
2024-01-24T04:14:57.847Z,603.00
2024-01-24T04:15:57.879Z,602.00
2024-01-24T04:17:00.864Z,602.00
2024-01-24T04:17:57.893Z,609.00
2024-01-24T04:18:57.891Z,607.00
2024-01-24T04:19:57.877Z,604.00
2024-01-24T04:20:57.832Z,606.00
2024-01-24T04:21:57.870Z,604.00
2024-01-24T04:22:57.827Z,605.00
2024-01-24T04:23:57.851Z,610.00
2024-01-24T04:24:57.855Z,604.00
2024-01-24T04:25:57.840Z,605.00
2024-01-24T04:26:57.833Z,605.00
2024-01-24T04:27:57.879Z,602.00
2024-01-24T04:28:57.866Z,607.00
2024-01-24T04:29:57.854Z,606.00
2024-01-24T04:30:57.971Z,603.00
2024-01-24T04:31:57.854Z,604.00
2024-01-24T04:32:57.888Z,603.00
2024-01-24T04:33:57.989Z,602.00
2024-01-24T04:35:05.477Z,600.00
2024-01-24T04:36:05.252Z,600.00
2024-01-24T04:37:05.276Z,600.00
2024-01-24T04:38:05.296Z,600.00
2024-01-24T04:39:05.267Z,600.00
2024-01-24T04:40:05.327Z,600.00
2024-01-24T04:41:05.262Z,605.00
2024-01-24T04:42:12.014Z,601.00
2024-01-24T04:43:06.321Z,602.00
2024-01-24T04:44:05.268Z,600.00
2024-01-24T04:45:05.281Z,601.00
2024-01-24T04:46:05.298Z,599.00
2024-01-24T04:47:05.298Z,598.00
2024-01-24T04:48:05.309Z,600.00
2024-01-24T04:49:05.354Z,602.00
2024-01-24T04:50:05.440Z,602.00
2024-01-24T04:51:05.272Z,602.00
2024-01-24T04:52:05.273Z,601.00
2024-01-24T04:53:05.281Z,605.00
2024-01-24T04:54:05.257Z,604.00
2024-01-24T04:55:05.266Z,602.00
2024-01-24T04:56:05.265Z,605.00
2024-01-24T04:57:05.279Z,603.00
2024-01-24T04:58:05.282Z,605.00
2024-01-24T04:59:05.282Z,600.00
2024-01-24T05:00:05.267Z,603.00
2024-01-24T05:01:05.407Z,602.00
2024-01-24T05:02:05.274Z,608.00
2024-01-24T05:03:05.281Z,605.00
2024-01-24T05:04:05.359Z,605.00
2024-01-24T05:05:05.286Z,605.00
2024-01-24T05:06:10.445Z,602.00
2024-01-24T05:07:06.309Z,602.00
2024-01-24T05:08:05.304Z,602.00
2024-01-24T05:09:05.290Z,604.00
2024-01-24T05:10:05.283Z,601.00
2024-01-24T05:11:05.293Z,603.00
2024-01-24T05:12:05.306Z,603.00
2024-01-24T05:13:05.314Z,606.00
2024-01-24T05:14:05.316Z,604.00
2024-01-24T05:15:05.298Z,606.00
2024-01-24T05:16:05.316Z,604.00
2024-01-24T05:17:05.354Z,605.00
2024-01-24T05:18:05.366Z,605.00
2024-01-24T05:19:05.381Z,600.00
2024-01-24T05:20:05.309Z,607.00
2024-01-24T05:21:05.318Z,606.00
2024-01-24T05:22:05.304Z,605.00
2024-01-24T05:23:05.320Z,604.00
2024-01-24T05:24:05.305Z,604.00
2024-01-24T05:25:05.315Z,605.00
2024-01-24T05:26:05.315Z,603.00
2024-01-24T05:27:05.365Z,607.00
2024-01-24T05:28:05.309Z,605.00
2024-01-24T05:29:05.313Z,604.00
2024-01-24T05:30:15.711Z,604.00
2024-01-24T05:31:06.333Z,604.00
2024-01-24T05:32:05.360Z,604.00
2024-01-24T05:33:05.347Z,604.00
2024-01-24T05:34:05.377Z,604.00
2024-01-24T05:35:05.374Z,603.00
2024-01-24T05:36:05.318Z,605.00
2024-01-24T05:37:05.376Z,604.00
2024-01-24T05:38:05.328Z,603.00
2024-01-24T05:39:05.335Z,604.00
2024-01-24T05:40:05.362Z,606.00
2024-01-24T05:41:05.336Z,605.00
2024-01-24T05:42:05.336Z,605.00
2024-01-24T05:43:05.415Z,605.00
2024-01-24T05:44:05.352Z,605.00
2024-01-24T05:45:05.347Z,601.00
2024-01-24T05:46:05.385Z,603.00
2024-01-24T05:47:05.881Z,604.00
2024-01-24T05:48:05.428Z,602.00
2024-01-24T05:49:05.501Z,603.00
2024-01-24T05:50:05.371Z,600.00
2024-01-24T05:51:05.332Z,601.00
2024-01-24T05:52:05.385Z,602.00
2024-01-24T05:53:05.342Z,601.00
2024-01-24T05:54:05.339Z,602.00
2024-01-24T05:55:05.398Z,602.00
2024-01-24T05:56:05.334Z,603.00
2024-01-24T05:57:05.352Z,602.00
2024-01-24T05:58:05.354Z,604.00
2024-01-24T05:59:05.341Z,603.00
2024-01-24T06:00:05.363Z,605.00
2024-01-24T06:01:05.426Z,606.00
2024-01-24T06:02:05.401Z,606.00
2024-01-24T06:03:05.351Z,603.00
2024-01-24T06:04:05.409Z,602.00
2024-01-24T06:05:05.530Z,603.00
2024-01-24T06:06:05.443Z,603.00
2024-01-24T06:07:05.418Z,602.00
2024-01-24T06:08:05.341Z,606.00
2024-01-24T06:09:05.340Z,602.00
2024-01-24T06:10:05.365Z,604.00
2024-01-24T06:11:05.355Z,606.00
2024-01-24T06:12:05.357Z,605.00
2024-01-24T06:13:05.345Z,606.00
2024-01-24T06:14:05.348Z,602.00
2024-01-24T06:15:05.361Z,604.00
2024-01-24T06:16:05.354Z,604.00
2024-01-24T06:17:05.371Z,605.00
2024-01-24T06:18:05.422Z,608.00
2024-01-24T06:19:05.434Z,601.00
2024-01-24T06:20:05.343Z,606.00
2024-01-24T06:21:05.364Z,604.00
2024-01-24T06:22:05.372Z,605.00
2024-01-24T06:23:05.381Z,600.00
2024-01-24T06:24:05.348Z,605.00
2024-01-24T06:25:07.511Z,606.00
2024-01-24T06:26:05.554Z,605.00
2024-01-24T06:27:05.579Z,604.00
2024-01-24T06:28:05.555Z,603.00
2024-01-24T06:29:05.578Z,603.00
2024-01-24T06:30:18.486Z,603.00
2024-01-24T06:31:06.619Z,603.00
2024-01-24T06:32:05.968Z,603.00
2024-01-24T06:33:05.619Z,603.00
2024-01-24T06:34:05.615Z,601.00
2024-01-24T06:35:05.583Z,602.00
2024-01-24T06:36:05.598Z,607.00
2024-01-24T06:37:09.709Z,604.00
2024-01-24T06:38:05.582Z,604.00
2024-01-24T06:39:05.585Z,604.00
2024-01-24T06:40:05.594Z,602.00
2024-01-24T06:41:05.606Z,603.00
2024-01-24T06:42:05.594Z,597.00
2024-01-24T06:43:05.616Z,603.00
2024-01-24T06:44:05.588Z,602.00
2024-01-24T06:45:05.589Z,605.00
2024-01-24T06:46:05.620Z,608.00
2024-01-24T06:47:05.594Z,602.00
2024-01-24T06:48:05.607Z,606.00
2024-01-24T06:49:05.649Z,607.00
2024-01-24T06:50:05.584Z,608.00
2024-01-24T06:51:05.594Z,613.00
2024-01-24T06:52:05.625Z,639.00
2024-01-24T06:53:05.604Z,684.00
2024-01-24T06:54:05.621Z,732.00
2024-01-24T06:55:05.588Z,757.00
2024-01-24T06:56:05.583Z,776.00
2024-01-24T06:57:05.641Z,798.00
2024-01-24T06:58:07.146Z,796.00
2024-01-24T06:59:05.598Z,796.00
2024-01-24T07:00:05.592Z,789.00
2024-01-24T07:01:05.682Z,770.00
2024-01-24T07:02:05.594Z,738.00
2024-01-24T07:03:05.665Z,703.00
2024-01-24T07:04:05.652Z,687.00
2024-01-24T07:05:05.669Z,666.00
2024-01-24T07:06:05.646Z,657.00
2024-01-24T07:07:05.637Z,653.00
2024-01-24T07:08:05.598Z,645.00
2024-01-24T07:09:05.610Z,641.00
2024-01-24T07:10:05.680Z,636.00
2024-01-24T07:11:05.622Z,635.00
2024-01-24T07:12:05.621Z,631.00
2024-01-24T07:13:05.679Z,629.00
2024-01-24T07:14:05.615Z,632.00
2024-01-24T07:15:05.614Z,633.00
2024-01-24T07:16:05.750Z,633.00
2024-01-24T07:17:05.617Z,629.00
2024-01-24T07:18:05.718Z,627.00
2024-01-24T07:19:05.701Z,627.00
2024-01-24T07:20:05.628Z,621.00
2024-01-24T07:21:05.634Z,618.00
2024-01-24T07:22:05.744Z,611.00
2024-01-24T07:23:05.607Z,609.00
2024-01-24T07:24:05.636Z,607.00
2024-01-24T07:25:05.666Z,605.00
2024-01-24T07:26:05.636Z,606.00
2024-01-24T07:27:05.630Z,600.00
2024-01-24T07:28:05.715Z,602.00
2024-01-24T07:29:05.653Z,601.00
2024-01-24T07:30:05.718Z,601.00
2024-01-24T07:31:05.671Z,601.00
2024-01-24T07:32:10.165Z,604.00
2024-01-24T07:33:05.673Z,604.00
2024-01-24T07:34:05.702Z,605.00
2024-01-24T07:35:05.717Z,606.00
2024-01-24T07:36:05.627Z,602.00
2024-01-24T07:37:05.667Z,598.00
2024-01-24T07:38:05.641Z,601.00
2024-01-24T07:39:05.674Z,602.00
2024-01-24T07:40:05.686Z,601.00
2024-01-24T07:41:05.665Z,606.00
2024-01-24T07:42:05.665Z,604.00
2024-01-24T07:43:05.746Z,602.00
2024-01-24T07:44:05.679Z,603.00
2024-01-24T07:45:05.662Z,605.00
2024-01-24T07:46:06.854Z,600.00
2024-01-24T07:47:05.661Z,608.00
2024-01-24T07:48:05.693Z,607.00
2024-01-24T07:49:05.712Z,607.00
2024-01-24T07:50:05.833Z,608.00
2024-01-24T07:51:05.664Z,607.00
2024-01-24T07:52:05.827Z,608.00
2024-01-24T07:53:05.687Z,613.00
2024-01-24T07:54:05.664Z,616.00
2024-01-24T07:55:05.728Z,614.00
2024-01-24T07:56:11.391Z,617.00
2024-01-24T07:57:06.696Z,617.00
2024-01-24T07:58:05.767Z,618.00
2024-01-24T07:59:05.658Z,620.00
2024-01-24T08:00:05.784Z,625.00
2024-01-24T08:01:05.732Z,626.00
2024-01-24T08:02:05.717Z,626.00
2024-01-24T08:03:05.711Z,624.00
2024-01-24T08:04:05.779Z,624.00
2024-01-24T08:05:05.839Z,621.00
2024-01-24T08:06:05.765Z,625.00
2024-01-24T08:07:06.570Z,626.00
2024-01-24T08:08:05.713Z,618.00
2024-01-24T08:09:07.713Z,615.00
2024-01-24T08:10:05.840Z,614.00
2024-01-24T08:11:05.782Z,612.00
2024-01-24T08:12:05.781Z,615.00
2024-01-24T08:13:05.812Z,611.00
2024-01-24T08:14:05.788Z,607.00
2024-01-24T08:15:05.784Z,604.00
2024-01-24T08:16:05.859Z,607.00
2024-01-24T08:17:05.800Z,606.00
2024-01-24T08:18:05.838Z,600.00
2024-01-24T08:19:05.860Z,608.00
2024-01-24T08:20:05.835Z,602.00
2024-01-24T08:21:08.470Z,602.00
2024-01-24T08:22:05.880Z,600.00
2024-01-24T08:23:05.807Z,608.00
2024-01-24T08:24:05.796Z,600.00
2024-01-24T08:25:05.850Z,600.00
2024-01-24T08:26:05.810Z,600.00
2024-01-24T08:27:05.855Z,603.00
2024-01-24T08:28:05.941Z,607.00
2024-01-24T08:29:05.804Z,601.00
2024-01-24T08:30:05.810Z,611.00
2024-01-24T08:31:05.853Z,610.00
2024-01-24T08:32:06.596Z,608.00
2024-01-24T08:33:05.940Z,614.00
2024-01-24T08:34:05.965Z,610.00
2024-01-24T08:35:05.897Z,604.00
2024-01-24T08:36:06.465Z,605.00
2024-01-24T08:37:05.846Z,609.00
2024-01-24T08:38:05.823Z,605.00
2024-01-24T08:39:05.835Z,602.00
2024-01-24T08:40:05.818Z,602.00
2024-01-24T08:41:05.820Z,605.00
2024-01-24T08:42:05.876Z,600.00
2024-01-24T08:43:05.841Z,602.00
2024-01-24T08:44:05.819Z,602.00
2024-01-24T08:45:05.813Z,600.00
2024-01-24T08:46:05.973Z,604.00
2024-01-24T08:47:05.823Z,602.00
2024-01-24T08:48:05.983Z,601.00
2024-01-24T08:49:05.925Z,606.00
2024-01-24T08:50:05.889Z,601.00
2024-01-24T08:51:05.823Z,603.00
2024-01-24T08:52:05.883Z,601.00
2024-01-24T08:53:05.831Z,603.00
2024-01-24T08:54:05.858Z,602.00
2024-01-24T08:55:06.016Z,600.00
2024-01-24T08:56:05.872Z,600.00
2024-01-24T08:57:05.830Z,600.00
2024-01-24T08:58:05.936Z,604.00
2024-01-24T08:59:05.824Z,603.00
2024-01-24T09:00:05.864Z,604.00
2024-01-24T09:01:05.943Z,608.00
2024-01-24T09:02:05.942Z,614.00
2024-01-24T09:03:05.879Z,621.00
2024-01-24T09:04:06.084Z,624.00
2024-01-24T09:05:05.859Z,637.00
2024-01-24T09:06:05.943Z,636.00
2024-01-24T09:07:05.884Z,641.00
2024-01-24T09:08:05.844Z,644.00
2024-01-24T09:09:05.878Z,652.00
2024-01-24T09:10:05.948Z,657.00
2024-01-24T09:11:05.921Z,661.00
2024-01-24T09:12:05.959Z,669.00
2024-01-24T09:13:06.151Z,695.00
2024-01-24T09:14:06.002Z,715.00
2024-01-24T09:15:06.015Z,732.00
2024-01-24T09:16:06.067Z,745.00
2024-01-24T09:17:06.018Z,759.00
2024-01-24T09:18:06.128Z,772.00
2024-01-24T09:19:06.349Z,786.00
2024-01-24T09:20:06.196Z,804.00
2024-01-24T09:21:06.139Z,811.00
2024-01-24T09:22:06.191Z,827.00
2024-01-24T09:23:06.164Z,858.00
2024-01-24T09:24:06.214Z,884.00
2024-01-24T09:25:08.289Z,898.00
2024-01-24T09:26:06.221Z,912.00
2024-01-24T09:27:06.232Z,933.00
2024-01-24T09:28:06.263Z,950.00
2024-01-24T09:29:06.462Z,968.00
2024-01-24T09:30:06.248Z,980.00
2024-01-24T09:31:06.282Z,997.00
2024-01-24T09:32:06.245Z,1005.00
2024-01-24T09:33:06.303Z,1031.00
2024-01-24T09:34:06.366Z,1050.00
2024-01-24T09:35:06.592Z,1058.00
2024-01-24T09:36:06.257Z,1060.00
2024-01-24T09:37:06.260Z,1088.00
2024-01-24T09:38:06.252Z,1071.00
2024-01-24T09:39:06.256Z,1093.00
2024-01-24T09:40:06.494Z,1086.00
2024-01-24T09:41:06.270Z,1104.00
2024-01-24T09:42:06.262Z,1136.00
2024-01-24T09:43:06.421Z,1139.00
2024-01-24T09:44:06.304Z,1149.00
2024-01-24T09:45:08.367Z,1162.00
2024-01-24T09:46:06.258Z,1175.00
2024-01-24T09:47:06.264Z,1211.00
2024-01-24T09:48:06.321Z,1211.00
2024-01-24T09:49:06.361Z,1246.00
2024-01-24T09:50:06.251Z,1249.00
2024-01-24T09:51:06.249Z,1245.00
2024-01-24T09:52:06.301Z,1230.00
2024-01-24T09:53:06.323Z,1204.00
2024-01-24T09:54:06.422Z,1157.00
2024-01-24T09:55:06.806Z,1127.00
2024-01-24T09:56:06.547Z,1107.00
2024-01-24T09:57:06.600Z,1089.00
2024-01-24T09:58:08.847Z,1072.00
2024-01-24T09:59:06.670Z,1054.00
2024-01-24T10:00:06.642Z,1045.00
2024-01-24T10:01:06.714Z,1032.00
2024-01-24T10:02:07.517Z,1019.00
2024-01-24T10:03:06.650Z,1029.00
2024-01-24T10:04:06.834Z,1034.00
2024-01-24T10:05:06.641Z,1035.00
2024-01-24T10:06:06.705Z,1017.00
2024-01-24T10:07:06.712Z,1015.00
2024-01-24T10:08:06.653Z,1042.00
2024-01-24T10:09:08.764Z,1030.00
2024-01-24T10:10:06.831Z,1044.00
2024-01-24T10:11:06.841Z,1048.00
2024-01-24T10:12:06.905Z,1059.00
2024-01-24T10:13:06.969Z,1071.00
2024-01-24T10:14:06.950Z,1073.00
2024-01-24T10:15:07.477Z,1084.00
2024-01-24T10:16:09.747Z,1096.00
2024-01-24T10:17:06.981Z,1115.00
2024-01-24T10:18:07.094Z,1123.00
2024-01-24T10:19:07.052Z,1128.00
2024-01-24T10:20:07.026Z,1138.00
2024-01-24T10:21:07.080Z,1155.00
2024-01-24T10:22:10.328Z,1166.00
2024-01-24T10:23:06.970Z,1167.00
2024-01-24T10:24:06.974Z,1170.00
2024-01-24T10:25:07.081Z,1176.00
2024-01-24T10:26:08.065Z,1195.00
2024-01-24T10:27:07.016Z,1225.00
2024-01-24T10:28:07.066Z,1231.00
2024-01-24T10:29:06.970Z,1248.00
2024-01-24T10:30:06.992Z,1259.00
2024-01-24T10:31:07.068Z,1270.00
2024-01-24T10:32:07.038Z,1271.00
2024-01-24T10:33:07.050Z,1291.00
2024-01-24T10:34:07.657Z,1296.00
2024-01-24T10:35:07.102Z,1294.00
2024-01-24T10:36:14.452Z,1299.00
2024-01-24T10:37:08.005Z,1300.00
2024-01-24T10:38:07.007Z,1305.00
2024-01-24T10:39:07.044Z,1313.00
2024-01-24T10:40:07.064Z,1331.00
2024-01-24T10:41:07.001Z,1356.00
2024-01-24T10:42:10.317Z,1371.00
2024-01-24T10:43:08.091Z,1371.00
2024-01-24T10:44:07.012Z,1375.00
2024-01-24T10:45:07.040Z,1381.00
2024-01-24T10:46:07.077Z,1396.00
2024-01-24T10:47:07.006Z,1416.00
2024-01-24T10:48:07.087Z,1429.00
2024-01-24T10:49:07.367Z,1442.00
2024-01-24T10:50:07.083Z,1443.00
2024-01-24T10:51:07.043Z,1453.00
2024-01-24T10:52:07.116Z,1462.00
2024-01-24T10:53:07.022Z,1469.00
2024-01-24T10:54:07.024Z,1489.00
2024-01-24T10:55:07.313Z,1460.00
2024-01-24T10:56:07.216Z,1465.00
2024-01-24T10:57:07.202Z,1451.00
2024-01-24T10:58:08.657Z,1444.00
2024-01-24T10:59:07.207Z,1398.00
2024-01-24T11:00:07.215Z,1368.00
2024-01-24T11:01:07.286Z,1330.00
2024-01-24T11:02:07.227Z,1317.00
2024-01-24T11:03:07.271Z,1309.00
2024-01-24T11:04:09.866Z,1290.00
2024-01-24T11:05:07.308Z,1284.00
2024-01-24T11:06:07.270Z,1280.00
2024-01-24T11:07:07.293Z,1271.00
2024-01-24T11:08:07.305Z,1269.00
2024-01-24T11:09:07.260Z,1252.00
2024-01-24T11:10:09.417Z,1253.00
2024-01-24T11:11:07.251Z,1251.00
2024-01-24T11:12:07.257Z,1248.00
2024-01-24T11:13:07.300Z,1233.00
2024-01-24T11:14:07.264Z,1219.00
2024-01-24T11:15:07.370Z,1213.00
2024-01-24T11:16:09.494Z,1209.00
2024-01-24T11:17:07.593Z,1206.00
2024-01-24T11:18:07.485Z,1202.00
2024-01-24T11:19:07.581Z,1200.00
2024-01-24T11:20:07.640Z,1177.00
2024-01-24T11:21:07.621Z,1182.00
2024-01-24T11:22:13.663Z,1170.00
2024-01-24T11:23:08.693Z,1167.00
2024-01-24T11:24:07.708Z,1170.00
2024-01-24T11:25:07.726Z,1160.00
2024-01-24T11:26:07.705Z,1155.00
2024-01-24T11:27:07.720Z,1164.00
2024-01-24T11:28:07.831Z,1153.00
2024-01-24T11:29:07.698Z,1153.00
2024-01-24T11:30:07.976Z,1159.00
2024-01-24T11:31:07.751Z,1154.00
2024-01-24T11:32:11.476Z,1169.00
2024-01-24T11:33:08.875Z,1166.00
2024-01-24T11:34:07.805Z,1169.00
2024-01-24T11:35:07.729Z,1170.00
2024-01-24T11:36:07.757Z,1177.00
2024-01-24T11:37:07.765Z,1172.00
2024-01-24T11:38:13.319Z,1184.00
2024-01-24T11:39:08.737Z,1185.00
2024-01-24T11:40:07.835Z,1188.00
2024-01-24T11:41:07.809Z,1193.00
2024-01-24T11:42:07.741Z,1205.00
2024-01-24T11:43:07.862Z,1237.00
2024-01-24T11:44:07.744Z,1237.00
2024-01-24T11:45:07.729Z,1258.00
2024-01-24T11:46:08.516Z,1269.00
2024-01-24T11:47:07.816Z,1264.00
2024-01-24T11:48:07.975Z,1283.00
2024-01-24T11:49:07.819Z,1289.00
2024-01-24T11:50:07.885Z,1298.00
2024-01-24T11:51:07.756Z,1296.00
2024-01-24T11:52:07.797Z,1297.00
2024-01-24T11:53:07.743Z,1296.00
2024-01-24T11:54:07.751Z,1306.00
2024-01-24T11:55:07.847Z,1313.00
2024-01-24T11:56:07.996Z,1318.00
2024-01-24T11:57:07.929Z,1313.00
2024-01-24T11:58:07.934Z,1317.00
2024-01-24T11:59:07.914Z,1330.00
2024-01-24T12:00:07.930Z,1333.00
2024-01-24T12:01:08.120Z,1348.00
2024-01-24T12:02:07.996Z,1348.00
2024-01-24T12:03:08.020Z,1358.00
2024-01-24T12:04:08.151Z,1360.00
2024-01-24T12:05:08.201Z,1366.00
2024-01-24T12:06:08.168Z,1381.00
2024-01-24T12:07:08.242Z,1389.00
2024-01-24T12:08:08.131Z,1395.00
2024-01-24T12:09:08.160Z,1398.00
2024-01-24T12:10:08.213Z,1417.00
2024-01-24T12:11:08.169Z,1438.00
2024-01-24T12:12:08.179Z,1441.00
2024-01-24T12:13:08.285Z,1459.00
2024-01-24T12:14:08.201Z,1473.00
2024-01-24T12:15:08.204Z,1458.00
2024-01-24T12:16:08.379Z,1471.00
2024-01-24T12:17:08.220Z,1476.00
2024-01-24T12:18:08.290Z,1484.00
2024-01-24T12:19:08.322Z,1481.00
2024-01-24T12:20:08.351Z,1494.00
2024-01-24T12:21:08.239Z,1501.00
2024-01-24T12:22:08.315Z,1508.00
2024-01-24T12:23:08.259Z,1510.00
2024-01-24T12:24:08.252Z,1509.00